Time;durP1;ratioP1;P1;durP2;ratioP2;P2;SDS_P1;SDS_P2;PMS_P1;PMS_P2;Temp;Humidity;BMP_temperature;BMP_pressure;BME280_temperature;BME280_humidity;BME280_pressure;Samples;Min_cycle;Max_cycle;Signal;HPM_P1;HPM_P2
2022/12/03 00:00:25;;;;;;;0.90;0.90;;;;;;;;;;6209547;23;20212;-73
2022/12/03 00:02:51;;;;;;;0.80;0.80;;;;;;;;;;6208835;22;20185;-74
2022/12/03 00:05:17;;;;;;;0.80;0.80;;;;;;;;;;6209632;23;20147;-74
2022/12/03 00:07:43;;;;;;;0.87;0.87;;;;;;;;;;6209449;23;20214;-74
2022/12/03 00:10:09;;;;;;;0.90;0.90;;;;;;;;;;6209159;23;20238;-74
2022/12/03 00:12:35;;;;;;;0.83;0.83;;;;;;;;;;6209090;22;20176;-73
2022/12/03 00:15:01;;;;;;;0.90;0.90;;;;;;;;;;6209081;23;20212;-76
2022/12/03 00:17:27;;;;;;;0.80;0.80;;;;;;;;;;6209531;23;20159;-75
2022/12/03 00:19:53;;;;;;;0.90;0.90;;;;;;;;;;6209506;23;20194;-73
2022/12/03 00:22:19;;;;;;;0.90;0.90;;;;;;;;;;6209279;22;20151;-75
2022/12/03 00:24:45;;;;;;;0.80;0.80;;;;;;;;;;6210450;23;20155;-72
2022/12/03 00:27:11;;;;;;;0.90;0.90;;;;;;;;;;6210617;23;20240;-74
2022/12/03 00:29:37;;;;;;;0.80;0.80;;;;;;;;;;6210790;23;20224;-74
2022/12/03 00:32:03;;;;;;;0.80;0.80;;;;;;;;;;6210003;23;20170;-75
2022/12/03 00:34:29;;;;;;;0.80;0.80;;;;;;;;;;6210260;22;20194;-75
2022/12/03 00:36:55;;;;;;;0.80;0.80;;;;;;;;;;6210743;23;20171;-73
2022/12/03 00:39:21;;;;;;;0.90;0.90;;;;;;;;;;6210607;23;20632;-73
2022/12/03 00:41:47;;;;;;;0.90;0.90;;;;;;;;;;6210751;23;20537;-76
2022/12/03 00:44:13;;;;;;;0.80;0.80;;;;;;;;;;6210232;22;20175;-76
2022/12/03 00:46:39;;;;;;;0.90;0.90;;;;;;;;;;6210488;23;20263;-75
2022/12/03 00:49:05;;;;;;;0.87;0.87;;;;;;;;;;6210667;23;20156;-76
2022/12/03 00:51:31;;;;;;;0.80;0.80;;;;;;;;;;6210582;23;20223;-73
2022/12/03 00:53:57;;;;;;;0.90;0.90;;;;;;;;;;6209944;22;20493;-75
2022/12/03 00:56:22;;;;;;;0.90;0.90;;;;;;;;;;6210664;23;20183;-73
2022/12/03 00:58:49;;;;;;;0.90;0.90;;;;;;;;;;6210696;23;20152;-73
2022/12/03 01:01:14;;;;;;;0.83;0.83;;;;;;;;;;6210703;23;20234;-73
2022/12/03 01:03:40;;;;;;;0.80;0.80;;;;;;;;;;6210157;22;20171;-74
2022/12/03 01:06:06;;;;;;;0.90;0.90;;;;;;;;;;6210464;23;20202;-73
2022/12/03 01:08:32;;;;;;;0.87;0.87;;;;;;;;;;6210204;23;20148;-73
2022/12/03 01:10:58;;;;;;;0.83;0.83;;;;;;;;;;6210560;23;20151;-74
2022/12/03 01:13:24;;;;;;;1.00;1.00;;;;;;;;;;6209898;22;20171;-73
2022/12/03 01:15:50;;;;;;;0.90;0.90;;;;;;;;;;6210463;23;20152;-72
2022/12/03 01:18:16;;;;;;;0.90;0.90;;;;;;;;;;6210140;23;20340;-73
2022/12/03 01:20:42;;;;;;;0.80;0.80;;;;;;;;;;6210490;23;20148;-73
2022/12/03 01:23:08;;;;;;;0.77;0.77;;;;;;;;;;6209874;22;20547;-75
2022/12/03 01:25:34;;;;;;;0.80;0.80;;;;;;;;;;6210209;23;20165;-73
2022/12/03 01:28:00;;;;;;;0.80;0.80;;;;;;;;;;6210507;23;20187;-73
2022/12/03 01:30:26;;;;;;;0.70;0.70;;;;;;;;;;6210475;23;20612;-74
2022/12/03 01:32:52;;;;;;;0.80;0.80;;;;;;;;;;6209508;22;20284;-74
2022/12/03 01:35:18;;;;;;;0.90;0.90;;;;;;;;;;6210615;23;20171;-74
2022/12/03 01:37:44;;;;;;;0.80;0.80;;;;;;;;;;6210735;23;20580;-75
2022/12/03 01:40:11;;;;;;;0.80;0.80;;;;;;;;;;6210495;23;20225;-75
2022/12/03 01:42:40;;;;;;;0.80;0.80;;;;;;;;;;6209729;22;20194;-75
2022/12/03 01:45:06;;;;;;;0.80;0.80;;;;;;;;;;6210434;23;20148;-74
2022/12/03 01:47:36;;;;;;;0.90;0.90;;;;;;;;;;6209942;23;20523;-75
2022/12/03 01:50:06;;;;;;;0.90;0.90;;;;;;;;;;6210330;23;20152;-75
2022/12/03 01:52:33;;;;;;;0.83;0.83;;;;;;;;;;6209917;22;20175;-75
2022/12/03 01:55:01;;;;;;;0.80;0.80;;;;;;;;;;6210388;23;20292;-75
2022/12/03 01:57:29;;;;;;;0.80;0.80;;;;;;;;;;6210376;23;20143;-75
2022/12/03 01:59:57;;;;;;;0.90;0.90;;;;;;;;;;6210277;23;20151;-75
2022/12/03 02:02:24;;;;;;;0.87;0.87;;;;;;;;;;6209575;22;20152;-75
2022/12/03 02:04:52;;;;;;;0.80;0.80;;;;;;;;;;6209984;23;20489;-75
2022/12/03 02:07:19;;;;;;;0.70;0.70;;;;;;;;;;6210289;23;20207;-75
2022/12/03 02:09:45;;;;;;;0.80;0.80;;;;;;;;;;6208379;23;20148;-75
2022/12/03 02:12:11;;;;;;;0.70;0.70;;;;;;;;;;6209851;22;20202;-75
2022/12/03 02:14:37;;;;;;;0.80;0.80;;;;;;;;;;6210250;23;20155;-75
2022/12/03 02:17:03;;;;;;;0.80;0.80;;;;;;;;;;6210245;23;20155;-75
2022/12/03 02:19:29;;;;;;;0.90;0.90;;;;;;;;;;6210224;23;20246;-75
2022/12/03 02:21:55;;;;;;;0.80;0.80;;;;;;;;;;6209774;23;20582;-75
2022/12/03 02:24:21;;;;;;;0.80;0.80;;;;;;;;;;6209830;22;20171;-75
2022/12/03 02:26:47;;;;;;;0.90;0.90;;;;;;;;;;6210072;23;20186;-75
2022/12/03 02:29:13;;;;;;;0.80;0.80;;;;;;;;;;6209794;23;20152;-75
2022/12/03 02:31:39;;;;;;;0.90;0.90;;;;;;;;;;6209916;23;20178;-74
2022/12/03 02:34:08;;;;;;;0.87;0.87;;;;;;;;;;6209868;22;20574;-74
2022/12/03 02:36:34;;;;;;;0.80;0.80;;;;;;;;;;6209875;23;20685;-75
2022/12/03 02:39:01;;;;;;;0.70;0.70;;;;;;;;;;6210252;23;20155;-74
2022/12/03 02:44:12;;;;;;;0.80;0.80;;;;;;;;;;6209301;22;20220;-75
2022/12/03 02:46:38;;;;;;;0.80;0.80;;;;;;;;;;6209700;23;20183;-75
2022/12/03 02:49:05;;;;;;;0.80;0.80;;;;;;;;;;6210316;23;20151;-75
2022/12/03 02:51:31;;;;;;;0.80;0.80;;;;;;;;;;6210201;23;20223;-75
2022/12/03 02:53:58;;;;;;;0.80;0.80;;;;;;;;;;6209371;22;20209;-75
2022/12/03 02:56:26;;;;;;;0.80;0.80;;;;;;;;;;6210162;23;20220;-75
2022/12/03 02:58:54;;;;;;;0.70;0.70;;;;;;;;;;6210177;23;20155;-75
2022/12/03 03:01:20;;;;;;;0.77;0.77;;;;;;;;;;6210038;23;20159;-76
2022/12/03 03:03:47;;;;;;;0.83;0.83;;;;;;;;;;6229566;22;20183;-74
2022/12/03 03:06:14;;;;;;;0.80;0.80;;;;;;;;;;6238462;22;20238;-75
2022/12/03 03:08:41;;;;;;;0.90;0.90;;;;;;;;;;6237944;22;20139;-74
2022/12/03 03:11:07;;;;;;;0.80;0.80;;;;;;;;;;6238055;22;20170;-74
2022/12/03 03:13:34;;;;;;;0.80;0.80;;;;;;;;;;6237909;22;20219;-74
2022/12/03 03:16:04;;;;;;;0.80;0.80;;;;;;;;;;6238784;22;20140;-74
2022/12/03 03:18:31;;;;;;;0.80;0.80;;;;;;;;;;6237359;22;20151;-75
2022/12/03 03:20:57;;;;;;;0.77;0.77;;;;;;;;;;6237411;23;20158;-75
2022/12/03 03:23:23;;;;;;;0.70;0.70;;;;;;;;;;6237046;22;20159;-75
2022/12/03 03:25:52;;;;;;;0.80;0.80;;;;;;;;;;6237608;23;20173;-75
2022/12/03 03:28:18;;;;;;;0.90;0.90;;;;;;;;;;6237703;23;20144;-74
2022/12/03 03:30:44;;;;;;;0.90;0.90;;;;;;;;;;6237478;23;20155;-75
2022/12/03 03:33:12;;;;;;;0.90;0.90;;;;;;;;;;6236473;22;20178;-74
2022/12/03 03:35:38;;;;;;;0.80;0.80;;;;;;;;;;6236619;23;20162;-74
2022/12/03 03:38:05;;;;;;;0.80;0.80;;;;;;;;;;6235417;23;20147;-74
2022/12/03 03:40:31;;;;;;;0.90;0.90;;;;;;;;;;6235138;23;20167;-74
2022/12/03 03:42:57;;;;;;;0.70;0.70;;;;;;;;;;6230680;22;20629;-74
2022/12/03 03:45:23;;;;;;;0.80;0.80;;;;;;;;;;6232860;23;20171;-75
2022/12/03 03:47:49;;;;;;;0.70;0.70;;;;;;;;;;6233534;23;20183;-75
2022/12/03 03:50:15;;;;;;;0.70;0.70;;;;;;;;;;6234929;23;20156;-74
2022/12/03 03:52:41;;;;;;;0.80;0.80;;;;;;;;;;6232129;22;20179;-75
2022/12/03 03:55:09;;;;;;;0.80;0.80;;;;;;;;;;6235143;23;20150;-74
2022/12/03 03:57:35;;;;;;;0.80;0.80;;;;;;;;;;6236452;22;20243;-74
2022/12/03 04:00:03;;;;;;;0.90;0.90;;;;;;;;;;6236973;23;20155;-75
2022/12/03 04:02:29;;;;;;;0.70;0.70;;;;;;;;;;6234686;22;20258;-75
2022/12/03 04:04:55;;;;;;;0.70;0.70;;;;;;;;;;6233496;23;20181;-74
2022/12/03 04:07:21;;;;;;;0.80;0.80;;;;;;;;;;6234632;23;20194;-75
2022/12/03 04:09:47;;;;;;;0.90;0.90;;;;;;;;;;6235094;23;20136;-73
2022/12/03 04:14:58;;;;;;;0.60;0.60;;;;;;;;;;6238156;22;20208;-73
2022/12/03 04:17:24;;;;;;;0.80;0.80;;;;;;;;;;6236761;23;20185;-74
2022/12/03 04:19:50;;;;;;;0.80;0.80;;;;;;;;;;6235374;22;20195;-74
2022/12/03 04:30:30;;;;;;;0.70;0.70;;;;;;;;;;6210913;23;20571;-75
2022/12/03 04:35:43;;;;;;;0.80;0.80;;;;;;;;;;6210623;23;20162;-75
2022/12/03 04:38:10;;;;;;;0.80;0.80;;;;;;;;;;6210240;23;20151;-75
2022/12/03 04:43:21;;;;;;;0.80;0.80;;;;;;;;;;6210029;22;20183;-75
2022/12/03 04:45:47;;;;;;;0.80;0.80;;;;;;;;;;6210899;23;20155;-75
2022/12/03 04:48:13;;;;;;;0.70;0.70;;;;;;;;;;6210954;23;20175;-75
2022/12/03 04:50:39;;;;;;;0.80;0.80;;;;;;;;;;6210830;23;20620;-75
2022/12/03 04:53:05;;;;;;;0.80;0.80;;;;;;;;;;6210309;22;20167;-75
2022/12/03 04:55:31;;;;;;;0.80;0.80;;;;;;;;;;6210550;23;20597;-75
2022/12/03 04:57:57;;;;;;;0.80;0.80;;;;;;;;;;6210690;23;20234;-75
2022/12/03 05:00:23;;;;;;;0.80;0.80;;;;;;;;;;6210286;23;20208;-75
2022/12/03 05:02:49;;;;;;;0.80;0.80;;;;;;;;;;6210213;22;20168;-75
2022/12/03 05:05:15;;;;;;;0.73;0.73;;;;;;;;;;6210652;23;20632;-75
2022/12/03 05:07:41;;;;;;;0.80;0.80;;;;;;;;;;6210343;23;20218;-75
2022/12/03 05:10:08;;;;;;;0.80;0.80;;;;;;;;;;6210559;23;20226;-75
2022/12/03 05:12:33;;;;;;;0.70;0.70;;;;;;;;;;6209562;22;20705;-75
2022/12/03 05:15:00;;;;;;;0.90;0.90;;;;;;;;;;6210607;23;20170;-75
2022/12/03 05:17:26;;;;;;;0.80;0.80;;;;;;;;;;6210744;23;20524;-75
2022/12/03 05:22:36;;;;;;;0.77;0.77;;;;;;;;;;6209614;22;20574;-75
2022/12/03 05:25:03;;;;;;;0.70;0.70;;;;;;;;;;6210213;23;20593;-75
2022/12/03 05:27:29;;;;;;;0.80;0.80;;;;;;;;;;6210504;23;20187;-76
2022/12/03 05:29:54;;;;;;;0.60;0.60;;;;;;;;;;6211042;23;20156;-76
2022/12/03 05:32:20;;;;;;;0.80;0.80;;;;;;;;;;6209314;22;20178;-75
2022/12/03 05:34:46;;;;;;;0.80;0.80;;;;;;;;;;6210595;23;20154;-75
2022/12/03 05:37:12;;;;;;;0.80;0.80;;;;;;;;;;6210491;23;20159;-75
2022/12/03 05:39:38;;;;;;;0.80;0.80;;;;;;;;;;6210532;23;20151;-75
2022/12/03 05:44:49;;;;;;;0.90;0.90;;;;;;;;;;6210546;23;20155;-75
2022/12/03 05:47:15;;;;;;;0.80;0.80;;;;;;;;;;6210266;23;20190;-75
2022/12/03 05:49:41;;;;;;;0.80;0.80;;;;;;;;;;6210050;23;20187;-75
2022/12/03 05:52:07;;;;;;;0.70;0.70;;;;;;;;;;6209805;23;20155;-75
2022/12/03 05:54:33;;;;;;;0.73;0.73;;;;;;;;;;6209930;23;20479;-75
2022/12/03 05:56:59;;;;;;;0.70;0.70;;;;;;;;;;6210505;23;20154;-76
2022/12/03 05:59:25;;;;;;;0.80;0.80;;;;;;;;;;6210422;23;20837;-75
2022/12/03 06:01:51;;;;;;;0.70;0.70;;;;;;;;;;6209912;23;20465;-75
2022/12/03 06:04:17;;;;;;;0.73;0.73;;;;;;;;;;6209528;22;20224;-75
2022/12/03 06:06:43;;;;;;;0.80;0.80;;;;;;;;;;6210275;23;20179;-76
2022/12/03 06:09:09;;;;;;;0.80;0.80;;;;;;;;;;6210397;23;20590;-75
2022/12/03 06:11:36;;;;;;;0.80;0.80;;;;;;;;;;6209991;23;20182;-75
2022/12/03 06:14:02;;;;;;;0.80;0.80;;;;;;;;;;6209873;22;20183;-75
2022/12/03 06:16:28;;;;;;;0.90;0.90;;;;;;;;;;6210429;23;20174;-75
2022/12/03 06:18:54;;;;;;;0.80;0.80;;;;;;;;;;6210412;23;20155;-75
2022/12/03 06:21:20;;;;;;;0.80;0.80;;;;;;;;;;6210113;23;20163;-75
2022/12/03 06:23:46;;;;;;;0.80;0.80;;;;;;;;;;6209918;22;20202;-76
2022/12/03 06:26:12;;;;;;;0.83;0.83;;;;;;;;;;6210239;23;20183;-75
2022/12/03 06:28:38;;;;;;;0.80;0.80;;;;;;;;;;6210029;23;20238;-75
2022/12/03 06:31:04;;;;;;;0.87;0.87;;;;;;;;;;6210774;23;20147;-75
2022/12/03 06:33:30;;;;;;;0.77;0.77;;;;;;;;;;6209667;22;20182;-75
2022/12/03 06:35:56;;;;;;;0.90;0.90;;;;;;;;;;6210106;23;20182;-75
2022/12/03 06:38:22;;;;;;;0.60;0.60;;;;;;;;;;6209773;23;20159;-75
2022/12/03 06:40:48;;;;;;;0.70;0.70;;;;;;;;;;6210248;23;20151;-75
2022/12/03 06:43:14;;;;;;;0.80;0.80;;;;;;;;;;6209737;22;20506;-74
2022/12/03 06:45:40;;;;;;;0.80;0.80;;;;;;;;;;6210129;23;20147;-75
2022/12/03 06:48:06;;;;;;;0.80;0.80;;;;;;;;;;6209986;23;20183;-75
2022/12/03 06:50:32;;;;;;;0.80;0.80;;;;;;;;;;6210064;23;20260;-74
2022/12/03 06:52:58;;;;;;;0.80;0.80;;;;;;;;;;6209105;22;20178;-74
2022/12/03 06:55:24;;;;;;;0.90;0.90;;;;;;;;;;6210203;23;20174;-75
2022/12/03 06:57:50;;;;;;;0.80;0.80;;;;;;;;;;6210242;23;20492;-74
2022/12/03 07:00:16;;;;;;;0.70;0.70;;;;;;;;;;6209997;23;20295;-74
2022/12/03 07:02:43;;;;;;;0.90;0.90;;;;;;;;;;6209647;22;20175;-74
2022/12/03 07:05:09;;;;;;;0.80;0.80;;;;;;;;;;6210156;23;20150;-75
2022/12/03 07:07:35;;;;;;;0.80;0.80;;;;;;;;;;6209441;23;20714;-74
2022/12/03 07:10:01;;;;;;;0.93;0.93;;;;;;;;;;6209663;23;20155;-74
2022/12/03 07:12:27;;;;;;;0.80;0.80;;;;;;;;;;6209238;22;20163;-74
2022/12/03 07:14:53;;;;;;;0.80;0.80;;;;;;;;;;6209117;23;20170;-76
2022/12/03 07:17:19;;;;;;;0.80;0.80;;;;;;;;;;6210020;23;20156;-76
2022/12/03 07:19:45;;;;;;;0.70;0.70;;;;;;;;;;6209398;23;20578;-76
2022/12/03 07:22:11;;;;;;;0.80;0.80;;;;;;;;;;6208490;22;20162;-76
2022/12/03 07:24:37;;;;;;;0.80;0.80;;;;;;;;;;6209464;23;20239;-76
2022/12/03 07:27:03;;;;;;;0.80;0.80;;;;;;;;;;6209008;23;20215;-75
2022/12/03 07:29:29;;;;;;;0.60;0.60;;;;;;;;;;6208434;23;20462;-76
2022/12/03 07:31:55;;;;;;;0.83;0.83;;;;;;;;;;6210260;23;20208;-77
2022/12/03 07:34:21;;;;;;;0.90;0.90;;;;;;;;;;6212502;22;20174;-77
2022/12/03 07:36:47;;;;;;;0.90;0.90;;;;;;;;;;6209739;23;20155;-74
2022/12/03 07:39:13;;;;;;;0.70;0.70;;;;;;;;;;6209764;23;20501;-73
2022/12/03 07:41:39;;;;;;;0.80;0.80;;;;;;;;;;6209738;23;20234;-73
2022/12/03 07:44:05;;;;;;;0.73;0.73;;;;;;;;;;6209082;22;20638;-73
2022/12/03 07:46:31;;;;;;;0.80;0.80;;;;;;;;;;6209651;23;20187;-73
2022/12/03 07:48:57;;;;;;;0.90;0.90;;;;;;;;;;6209758;23;20151;-73
2022/12/03 07:51:23;;;;;;;0.70;0.70;;;;;;;;;;6209336;23;20162;-74
2022/12/03 07:53:49;;;;;;;0.80;0.80;;;;;;;;;;6207950;22;20288;-75
2022/12/03 07:56:15;;;;;;;0.70;0.70;;;;;;;;;;6209325;23;20191;-74
2022/12/03 07:58:41;;;;;;;0.80;0.80;;;;;;;;;;6209301;23;20155;-74
2022/12/03 08:01:07;;;;;;;0.90;0.90;;;;;;;;;;6209327;23;20234;-75
2022/12/03 08:03:33;;;;;;;0.80;0.80;;;;;;;;;;6209071;22;20171;-75
2022/12/03 08:05:59;;;;;;;1.00;1.00;;;;;;;;;;6209523;23;20162;-75
2022/12/03 08:08:25;;;;;;;0.70;0.70;;;;;;;;;;6208621;23;20694;-74
2022/12/03 08:10:50;;;;;;;0.83;0.83;;;;;;;;;;6209943;23;20227;-74
2022/12/03 08:13:17;;;;;;;0.80;0.80;;;;;;;;;;6208364;22;20171;-73
2022/12/03 08:15:44;;;;;;;0.90;0.90;;;;;;;;;;6209613;23;20172;-73
2022/12/03 08:18:17;;;;;;;0.80;0.80;;;;;;;;;;6209841;23;20152;-74
2022/12/03 08:20:44;;;;;;;0.90;0.90;;;;;;;;;;6209604;23;20151;-75
2022/12/03 08:23:12;;;;;;;0.70;0.70;;;;;;;;;;6209402;22;20174;-74
2022/12/03 08:25:38;;;;;;;0.80;0.80;;;;;;;;;;6209689;23;20175;-73
2022/12/03 08:28:26;;;;;;;0.83;0.83;;;;;;;;;;6209670;23;20228;-73
2022/12/03 08:31:06;;;;;;;0.80;0.80;;;;;;;;;;6211019;23;20155;-76
2022/12/03 08:33:34;;;;;;;0.80;0.80;;;;;;;;;;6208829;22;20316;-74
2022/12/03 08:36:01;;;;;;;0.90;0.90;;;;;;;;;;6208979;23;20624;-74
2022/12/03 08:38:29;;;;;;;0.80;0.80;;;;;;;;;;6208359;23;20147;-74
2022/12/03 08:40:55;;;;;;;0.83;0.83;;;;;;;;;;6208911;23;20152;-74
2022/12/03 08:43:23;;;;;;;0.90;0.90;;;;;;;;;;6208768;22;20178;-74
2022/12/03 08:45:49;;;;;;;0.90;0.90;;;;;;;;;;6210363;23;20147;-73
2022/12/03 08:48:15;;;;;;;0.87;0.87;;;;;;;;;;6209851;23;20202;-73
2022/12/03 08:50:43;;;;;;;0.80;0.80;;;;;;;;;;6210393;23;20151;-73
2022/12/03 08:53:09;;;;;;;0.90;0.90;;;;;;;;;;6210051;22;20182;-74
2022/12/03 08:55:36;;;;;;;0.93;0.93;;;;;;;;;;6210738;23;20154;-74
2022/12/03 08:58:19;;;;;;;0.90;0.90;;;;;;;;;;6210413;23;20602;-74
2022/12/03 09:00:45;;;;;;;0.90;0.90;;;;;;;;;;6210285;23;20144;-73
2022/12/03 09:03:15;;;;;;;0.90;0.90;;;;;;;;;;6210175;22;20178;-74
2022/12/03 09:05:41;;;;;;;0.80;0.80;;;;;;;;;;6210731;23;20151;-74
2022/12/03 09:08:07;;;;;;;0.80;0.80;;;;;;;;;;6207784;23;20652;-74
2022/12/03 09:10:33;;;;;;;0.90;0.90;;;;;;;;;;6210561;23;20293;-74
2022/12/03 09:12:59;;;;;;;0.80;0.80;;;;;;;;;;6208305;22;20203;-73
2022/12/03 09:15:25;;;;;;;0.70;0.70;;;;;;;;;;6210326;23;20158;-74
2022/12/03 09:17:51;;;;;;;0.80;0.80;;;;;;;;;;6209648;23;20159;-74
2022/12/03 09:20:17;;;;;;;0.90;0.90;;;;;;;;;;6208912;23;20582;-75
2022/12/03 09:22:42;;;;;;;0.90;0.90;;;;;;;;;;6210348;22;20171;-73
2022/12/03 09:25:09;;;;;;;0.97;0.97;;;;;;;;;;6210627;23;20178;-74
2022/12/03 09:27:35;;;;;;;0.87;0.87;;;;;;;;;;6210550;23;20183;-75
2022/12/03 09:30:01;;;;;;;0.80;0.80;;;;;;;;;;6210692;23;20155;-75
2022/12/03 09:32:27;;;;;;;0.90;0.90;;;;;;;;;;6219840;22;20211;-74
2022/12/03 09:34:53;;;;;;;0.80;0.80;;;;;;;;;;6237425;23;20158;-74
2022/12/03 09:37:20;;;;;;;0.90;0.90;;;;;;;;;;6235999;23;20238;-73
2022/12/03 09:39:46;;;;;;;0.80;0.80;;;;;;;;;;6237233;22;20182;-74
2022/12/03 09:42:12;;;;;;;0.90;0.90;;;;;;;;;;6225567;22;20206;-80
2022/12/03 09:44:39;;;;;;;0.80;0.80;;;;;;;;;;6213438;23;20636;-79
2022/12/03 09:47:05;;;;;;;0.80;0.80;;;;;;;;;;6213493;23;20213;-77
2022/12/03 09:49:32;;;;;;;0.90;0.90;;;;;;;;;;6212413;23;20181;-79
2022/12/03 09:52:00;;;;;;;0.90;0.90;;;;;;;;;;6213084;23;20156;-80
2022/12/03 09:54:27;;;;;;;0.90;0.90;;;;;;;;;;6213214;22;20171;-83
2022/12/03 09:56:54;;;;;;;0.90;0.90;;;;;;;;;;6213121;23;20158;-78
2022/12/03 09:59:21;;;;;;;0.90;0.90;;;;;;;;;;6213675;23;20151;-77
2022/12/03 10:01:47;;;;;;;0.90;0.90;;;;;;;;;;6212378;23;20246;-78
2022/12/03 10:04:13;;;;;;;0.80;0.80;;;;;;;;;;6212243;22;20177;-79
2022/12/03 10:06:39;;;;;;;0.87;0.87;;;;;;;;;;6212355;23;20187;-82
2022/12/03 10:09:06;;;;;;;0.70;0.70;;;;;;;;;;6213305;23;20155;-80
2022/12/03 10:11:34;;;;;;;0.90;0.90;;;;;;;;;;6212597;23;20681;-78
2022/12/03 10:14:00;;;;;;;0.90;0.90;;;;;;;;;;6212791;22;20515;-80
2022/12/03 10:16:27;;;;;;;0.80;0.80;;;;;;;;;;6214016;23;20172;-81
2022/12/03 10:18:55;;;;;;;0.80;0.80;;;;;;;;;;6213718;23;20665;-80
2022/12/03 10:21:31;;;;;;;0.87;0.87;;;;;;;;;;6214478;23;20247;-79
2022/12/03 10:24:16;;;;;;;0.90;0.90;;;;;;;;;;6213235;22;20171;-80
2022/12/03 10:26:42;;;;;;;0.87;0.87;;;;;;;;;;6214589;23;20179;-79
2022/12/03 10:29:17;;;;;;;0.87;0.87;;;;;;;;;;6212470;23;20646;-79
2022/12/03 10:31:43;;;;;;;0.90;0.90;;;;;;;;;;6213111;23;20157;-79
2022/12/03 10:34:10;;;;;;;0.80;0.80;;;;;;;;;;6212904;22;20171;-79
2022/12/03 10:36:36;;;;;;;0.90;0.90;;;;;;;;;;6213655;23;20170;-79
2022/12/03 10:39:07;;;;;;;0.80;0.80;;;;;;;;;;6213511;23;20155;-80
2022/12/03 10:41:33;;;;;;;0.90;0.90;;;;;;;;;;6220532;23;20226;-79
2022/12/03 10:44:18;;;;;;;1.00;1.00;;;;;;;;;;6221763;22;20183;-79
2022/12/03 10:46:45;;;;;;;0.90;0.90;;;;;;;;;;6214852;23;20187;-79
2022/12/03 10:49:18;;;;;;;0.90;0.90;;;;;;;;;;6217459;23;20151;-79
2022/12/03 10:51:45;;;;;;;0.90;0.90;;;;;;;;;;6211348;23;20159;-78
2022/12/03 10:54:14;;;;;;;1.00;1.00;;;;;;;;;;6210296;22;20172;-78
2022/12/03 10:56:40;;;;;;;0.90;0.90;;;;;;;;;;6211431;23;20465;-78
2022/12/03 10:59:08;;;;;;;0.90;0.90;;;;;;;;;;6212422;23;20609;-78
2022/12/03 11:01:34;;;;;;;0.97;0.97;;;;;;;;;;6212571;23;20151;-77
2022/12/03 11:04:02;;;;;;;0.90;0.90;;;;;;;;;;6211153;22;20550;-80
2022/12/03 11:06:30;;;;;;;0.90;0.90;;;;;;;;;;6210896;23;20179;-79
2022/12/03 11:08:56;;;;;;;0.87;0.87;;;;;;;;;;6211215;23;20219;-78
2022/12/03 11:11:25;;;;;;;0.90;0.90;;;;;;;;;;6210117;23;20529;-78
2022/12/03 11:13:59;;;;;;;0.90;0.90;;;;;;;;;;6210894;22;20224;-78
2022/12/03 11:16:51;;;;;;;0.90;0.90;;;;;;;;;;6219298;23;20139;-79
2022/12/03 11:19:18;;;;;;;0.90;0.90;;;;;;;;;;6233887;23;20167;-78
2022/12/03 11:22:08;;;;;;;1.03;1.03;;;;;;;;;;6223096;23;20177;-78
2022/12/03 11:24:36;;;;;;;0.90;0.90;;;;;;;;;;6222565;23;20158;-79
2022/12/03 11:27:02;;;;;;;1.00;1.00;;;;;;;;;;6210770;23;20187;-80
2022/12/03 11:29:48;;;;;;;0.90;0.90;;;;;;;;;;6211313;23;20152;-79
2022/12/03 11:32:33;;;;;;;0.90;0.90;;;;;;;;;;6210291;22;20167;-79
2022/12/03 11:34:58;;;;;;;0.80;0.80;;;;;;;;;;6211467;23;20482;-77
2022/12/03 11:37:25;;;;;;;0.90;0.90;;;;;;;;;;6210586;23;20374;-78
2022/12/03 11:39:51;;;;;;;0.90;0.90;;;;;;;;;;6210325;23;20147;-77
2022/12/03 11:42:26;;;;;;;0.70;0.70;;;;;;;;;;6209453;22;20181;-78
2022/12/03 11:45:04;;;;;;;0.83;0.83;;;;;;;;;;6210530;23;20254;-79
2022/12/03 11:47:30;;;;;;;0.90;0.90;;;;;;;;;;6209970;23;20486;-78
2022/12/03 11:49:56;;;;;;;0.87;0.87;;;;;;;;;;6209755;23;20151;-79
2022/12/03 11:52:27;;;;;;;0.80;0.80;;;;;;;;;;6206656;22;20155;-77
2022/12/03 11:54:54;;;;;;;0.80;0.80;;;;;;;;;;6209846;23;20136;-78
2022/12/03 11:57:29;;;;;;;0.90;0.90;;;;;;;;;;6209465;23;20227;-77
2022/12/03 11:59:58;;;;;;;0.90;0.90;;;;;;;;;;6217841;23;20154;-78
2022/12/03 12:02:25;;;;;;;0.83;0.83;;;;;;;;;;6223624;22;20152;-80
2022/12/03 12:04:51;;;;;;;0.80;0.80;;;;;;;;;;6226229;23;20152;-80
2022/12/03 12:07:33;;;;;;;1.00;1.00;;;;;;;;;;6213836;23;20202;-79
2022/12/03 12:09:59;;;;;;;0.93;0.93;;;;;;;;;;6210362;23;20496;-80
2022/12/03 12:12:31;;;;;;;0.80;0.80;;;;;;;;;;6209614;22;20156;-77
2022/12/03 12:14:58;;;;;;;0.90;0.90;;;;;;;;;;6210336;23;20247;-78
2022/12/03 12:17:34;;;;;;;0.90;0.90;;;;;;;;;;6211039;23;20158;-79
2022/12/03 12:20:18;;;;;;;0.80;0.80;;;;;;;;;;6211571;23;20151;-78
2022/12/03 12:22:44;;;;;;;0.90;0.90;;;;;;;;;;6211789;22;20657;-79
2022/12/03 12:25:29;;;;;;;0.80;0.80;;;;;;;;;;6212678;23;20154;-78
2022/12/03 12:27:55;;;;;;;0.80;0.80;;;;;;;;;;6212004;23;20187;-78
2022/12/03 12:30:22;;;;;;;0.80;0.80;;;;;;;;;;6211647;23;20162;-80
2022/12/03 12:32:49;;;;;;;0.90;0.90;;;;;;;;;;6210845;22;20485;-78
2022/12/03 12:35:20;;;;;;;0.80;0.80;;;;;;;;;;6211842;23;20491;-78
2022/12/03 12:37:49;;;;;;;0.80;0.80;;;;;;;;;;6211866;23;20147;-79
2022/12/03 12:40:16;;;;;;;0.93;0.93;;;;;;;;;;6212294;23;20147;-80
2022/12/03 12:42:46;;;;;;;0.90;0.90;;;;;;;;;;6211262;22;20187;-78
2022/12/03 12:45:13;;;;;;;0.87;0.87;;;;;;;;;;6213493;23;20150;-79
2022/12/03 12:47:46;;;;;;;0.90;0.90;;;;;;;;;;6211347;23;20187;-77
2022/12/03 12:50:13;;;;;;;0.90;0.90;;;;;;;;;;6211513;23;20167;-78
2022/12/03 12:52:46;;;;;;;0.87;0.87;;;;;;;;;;6211617;22;20225;-79
2022/12/03 12:55:15;;;;;;;0.80;0.80;;;;;;;;;;6212495;23;20467;-79
2022/12/03 12:57:41;;;;;;;1.00;1.00;;;;;;;;;;6213045;23;20155;-80
2022/12/03 13:00:13;;;;;;;0.90;0.90;;;;;;;;;;6218161;23;20178;-80
2022/12/03 13:02:39;;;;;;;0.90;0.90;;;;;;;;;;6228674;22;20167;-82
2022/12/03 13:05:07;;;;;;;0.80;0.80;;;;;;;;;;6232185;23;20159;-81
2022/12/03 13:07:33;;;;;;;1.00;1.00;;;;;;;;;;6234676;22;20183;-82
2022/12/03 13:10:00;;;;;;;0.87;0.87;;;;;;;;;;6226646;23;20694;-77
2022/12/03 13:12:26;;;;;;;0.97;0.97;;;;;;;;;;6212621;22;20159;-78
2022/12/03 13:14:53;;;;;;;0.80;0.80;;;;;;;;;;6214446;23;20156;-82
2022/12/03 13:17:23;;;;;;;0.80;0.80;;;;;;;;;;6215291;23;20204;-79
2022/12/03 13:19:49;;;;;;;0.80;0.80;;;;;;;;;;6212974;23;20139;-79
2022/12/03 13:22:18;;;;;;;0.90;0.90;;;;;;;;;;6213085;22;20159;-78
2022/12/03 13:24:49;;;;;;;0.83;0.83;;;;;;;;;;6212119;23;20151;-79
2022/12/03 13:27:15;;;;;;;1.00;1.00;;;;;;;;;;6213409;23;20180;-79
2022/12/03 13:29:41;;;;;;;0.90;0.90;;;;;;;;;;6211251;23;20147;-77
2022/12/03 13:32:11;;;;;;;0.90;0.90;;;;;;;;;;6210644;23;20490;-79
2022/12/03 13:34:37;;;;;;;0.80;0.80;;;;;;;;;;6212158;23;20158;-78
2022/12/03 13:37:06;;;;;;;0.90;0.90;;;;;;;;;;6210646;23;20238;-78
2022/12/03 13:39:34;;;;;;;0.90;0.90;;;;;;;;;;6213494;23;20155;-80
2022/12/03 13:44:56;;;;;;;0.90;0.90;;;;;;;;;;6213104;23;20621;-80
2022/12/03 13:47:23;;;;;;;0.80;0.80;;;;;;;;;;6212771;23;20182;-81
2022/12/03 13:49:53;;;;;;;0.90;0.90;;;;;;;;;;6212443;23;20151;-78
2022/12/03 13:52:20;;;;;;;0.93;0.93;;;;;;;;;;6212682;22;20558;-80
2022/12/03 13:54:49;;;;;;;0.80;0.80;;;;;;;;;;6214906;23;20235;-78
2022/12/03 13:57:14;;;;;;;0.93;0.93;;;;;;;;;;6212985;23;20159;-78
2022/12/03 13:59:40;;;;;;;0.90;0.90;;;;;;;;;;6213450;23;20158;-80
2022/12/03 14:02:08;;;;;;;0.90;0.90;;;;;;;;;;6214242;23;20179;-79
2022/12/03 14:04:34;;;;;;;0.80;0.80;;;;;;;;;;6218879;23;20161;-80
2022/12/03 14:07:00;;;;;;;0.80;0.80;;;;;;;;;;6231236;23;20183;-79
2022/12/03 14:09:26;;;;;;;0.97;0.97;;;;;;;;;;6232168;23;20460;-79
2022/12/03 14:14:37;;;;;;;0.87;0.87;;;;;;;;;;6220636;23;20201;-80
2022/12/03 14:17:03;;;;;;;1.00;1.00;;;;;;;;;;6230943;23;20163;-81
2022/12/03 14:19:30;;;;;;;0.90;0.90;;;;;;;;;;6233441;23;20159;-78
2022/12/03 14:21:55;;;;;;;0.90;0.90;;;;;;;;;;6235073;23;20147;-81
2022/12/03 14:24:21;;;;;;;0.80;0.80;;;;;;;;;;6216400;22;20178;-80
2022/12/03 14:26:47;;;;;;;0.87;0.87;;;;;;;;;;6216445;23;20210;-78
2022/12/03 14:29:13;;;;;;;0.90;0.90;;;;;;;;;;6213444;23;20186;-78
2022/12/03 14:31:39;;;;;;;0.90;0.90;;;;;;;;;;6213175;23;20158;-79
2022/12/03 14:34:05;;;;;;;0.80;0.80;;;;;;;;;;6211226;22;20693;-80
2022/12/03 14:36:31;;;;;;;0.90;0.90;;;;;;;;;;6212743;23;20175;-78
2022/12/03 14:38:57;;;;;;;0.80;0.80;;;;;;;;;;6213409;23;20235;-78
2022/12/03 14:44:08;;;;;;;0.90;0.90;;;;;;;;;;6213704;22;20186;-78
2022/12/03 14:46:34;;;;;;;0.90;0.90;;;;;;;;;;6213658;23;20183;-80
2022/12/03 14:49:00;;;;;;;0.90;0.90;;;;;;;;;;6214958;23;20147;-79
2022/12/03 14:51:26;;;;;;;0.87;0.87;;;;;;;;;;6214210;23;20234;-80
2022/12/03 14:53:52;;;;;;;0.80;0.80;;;;;;;;;;6214223;22;20621;-80
2022/12/03 14:56:18;;;;;;;0.90;0.90;;;;;;;;;;6214807;23;20660;-79
2022/12/03 14:58:44;;;;;;;0.90;0.90;;;;;;;;;;6212557;23;20484;-79
2022/12/03 15:01:10;;;;;;;0.90;0.90;;;;;;;;;;6213050;23;20158;-80
2022/12/03 15:03:36;;;;;;;0.97;0.97;;;;;;;;;;6212941;22;20167;-79
2022/12/03 15:06:02;;;;;;;0.90;0.90;;;;;;;;;;6217977;23;20151;-80
2022/12/03 15:08:28;;;;;;;0.87;0.87;;;;;;;;;;6213645;23;20255;-78
2022/12/03 15:10:54;;;;;;;0.90;0.90;;;;;;;;;;6210958;23;20487;-79
2022/12/03 15:13:20;;;;;;;0.90;0.90;;;;;;;;;;6211801;22;20171;-78
2022/12/03 15:15:46;;;;;;;1.03;1.03;;;;;;;;;;6212245;23;20519;-79